Station: ELLX - 18/02/2019 04:50Z (il y a 30 minutes)
ELLX 180450Z 18003KT CAVOK 04/M02 Q1021 NOSIG
Vent du 180º - 3 kt
Visibilité > 10 km et plafond haut ou pas de nuages significatifs
Température: +04ºC - Point de rosée: -02ºC - QNH: 1021 hPa
Pas de changement significatif prévu dans les 2 heures qui suivent l'observation